sensor_id;sensor_type;location;lat;lon;timestamp;temperature;humidity
60701;DHT22;46541;49.894;10.886;2023-03-12T00:02:00;1.70;99.90
60701;DHT22;46541;49.894;10.886;2023-03-12T00:04:27;1.70;99.90
60701;DHT22;46541;49.894;10.886;2023-03-12T00:06:54;1.70;99.90
60701;DHT22;46541;49.894;10.886;2023-03-12T00:09:20;1.70;99.90
60701;DHT22;46541;49.894;10.886;2023-03-12T00:11:48;1.70;99.90
60701;DHT22;46541;49.894;10.886;2023-03-12T00:14:15;1.60;99.90
60701;DHT22;46541;49.894;10.886;2023-03-12T00:16:42;1.70;99.90
60701;DHT22;46541;49.894;10.886;2023-03-12T00:19:11;1.60;99.90
60701;DHT22;46541;49.894;10.886;2023-03-12T00:21:38;1.50;99.90
60701;DHT22;46541;49.894;10.886;2023-03-12T00:24:06;1.50;99.90
60701;DHT22;46541;49.894;10.886;2023-03-12T00:26:33;1.50;99.90
60701;DHT22;46541;49.894;10.886;2023-03-12T00:29:00;1.40;99.90
60701;DHT22;46541;49.894;10.886;2023-03-12T00:31:30;1.40;99.90
60701;DHT22;46541;49.894;10.886;2023-03-12T00:33:59;1.40;99.90
60701;DHT22;46541;49.894;10.886;2023-03-12T00:36:29;1.40;99.90
60701;DHT22;46541;49.894;10.886;2023-03-12T00:38:57;1.40;99.90
60701;DHT22;46541;49.894;10.886;2023-03-12T00:41:25;1.40;99.90
60701;DHT22;46541;49.894;10.886;2023-03-12T00:43:55;1.40;99.90
60701;DHT22;46541;49.894;10.886;2023-03-12T00:46:21;1.40;99.90
60701;DHT22;46541;49.894;10.886;2023-03-12T00:48:48;1.40;99.90
60701;DHT22;46541;49.894;10.886;2023-03-12T00:51:15;1.30;99.90
60701;DHT22;46541;49.894;10.886;2023-03-12T00:53:42;1.30;99.90
60701;DHT22;46541;49.894;10.886;2023-03-12T00:56:09;1.30;99.90
60701;DHT22;46541;49.894;10.886;2023-03-12T00:58:36;1.20;99.90
60701;DHT22;46541;49.894;10.886;2023-03-12T01:01:03;1.30;99.90
60701;DHT22;46541;49.894;10.886;2023-03-12T01:03:29;1.30;99.90
60701;DHT22;46541;49.894;10.886;2023-03-12T01:05:56;1.30;99.90
60701;DHT22;46541;49.894;10.886;2023-03-12T01:08:23;1.30;99.90
60701;DHT22;46541;49.894;10.886;2023-03-12T01:10:50;1.30;99.90
60701;DHT22;46541;49.894;10.886;2023-03-12T01:13:17;1.20;99.90
60701;DHT22;46541;49.894;10.886;2023-03-12T01:15:44;1.30;99.90
60701;DHT22;46541;49.894;10.886;2023-03-12T01:18:11;1.40;99.90
60701;DHT22;46541;49.894;10.886;2023-03-12T01:20:38;1.40;99.90
60701;DHT22;46541;49.894;10.886;2023-03-12T01:23:06;1.40;99.90
60701;DHT22;46541;49.894;10.886;2023-03-12T01:25:33;1.40;99.90
60701;DHT22;46541;49.894;10.886;2023-03-12T01:28:00;1.30;99.90
60701;DHT22;46541;49.894;10.886;2023-03-12T01:30:28;1.30;99.90
60701;DHT22;46541;49.894;10.886;2023-03-12T01:32:55;1.30;99.90
60701;DHT22;46541;49.894;10.886;2023-03-12T01:35:21;1.40;99.90
60701;DHT22;46541;49.894;10.886;2023-03-12T01:37:48;1.30;99.90
60701;DHT22;46541;49.894;10.886;2023-03-12T01:40:17;1.20;99.90
60701;DHT22;46541;49.894;10.886;2023-03-12T01:42:51;1.20;99.90
60701;DHT22;46541;49.894;10.886;2023-03-12T01:48:24;1.20;99.90
60701;DHT22;46541;49.894;10.886;2023-03-12T01:50:51;1.20;99.90
60701;DHT22;46541;49.894;10.886;2023-03-12T01:53:18;1.10;99.90
60701;DHT22;46541;49.894;10.886;2023-03-12T01:55:44;1.10;99.90
60701;DHT22;46541;49.894;10.886;2023-03-12T01:58:11;1.10;99.90
60701;DHT22;46541;49.894;10.886;2023-03-12T02:00:38;1.10;99.90
60701;DHT22;46541;49.894;10.886;2023-03-12T02:03:06;1.10;99.90
60701;DHT22;46541;49.894;10.886;2023-03-12T02:05:53;1.10;99.90
60701;DHT22;46541;49.894;10.886;2023-03-12T02:08:22;1.10;99.90
60701;DHT22;46541;49.894;10.886;2023-03-12T02:10:49;1.10;99.90
60701;DHT22;46541;49.894;10.886;2023-03-12T02:13:16;1.20;99.90
60701;DHT22;46541;49.894;10.886;2023-03-12T02:15:43;1.20;99.90
60701;DHT22;46541;49.894;10.886;2023-03-12T02:18:15;1.30;99.90
60701;DHT22;46541;49.894;10.886;2023-03-12T02:23:26;1.30;99.90
60701;DHT22;46541;49.894;10.886;2023-03-12T02:25:56;1.30;99.90
60701;DHT22;46541;49.894;10.886;2023-03-12T02:28:26;1.40;99.90
60701;DHT22;46541;49.894;10.886;2023-03-12T02:30:59;1.40;99.90
60701;DHT22;46541;49.894;10.886;2023-03-12T02:33:26;1.30;99.90
60701;DHT22;46541;49.894;10.886;2023-03-12T02:35:55;1.30;99.90
60701;DHT22;46541;49.894;10.886;2023-03-12T02:38:46;1.30;99.90
60701;DHT22;46541;49.894;10.886;2023-03-12T02:44:03;1.30;99.90
60701;DHT22;46541;49.894;10.886;2023-03-12T02:46:37;1.30;99.90
60701;DHT22;46541;49.894;10.886;2023-03-12T02:49:04;1.30;99.90
60701;DHT22;46541;49.894;10.886;2023-03-12T02:51:31;1.20;99.90
60701;DHT22;46541;49.894;10.886;2023-03-12T02:53:58;1.20;99.90
60701;DHT22;46541;49.894;10.886;2023-03-12T02:56:27;1.20;99.90
60701;DHT22;46541;49.894;10.886;2023-03-12T02:58:54;1.20;99.90
60701;DHT22;46541;49.894;10.886;2023-03-12T03:01:21;1.30;99.90
60701;DHT22;46541;49.894;10.886;2023-03-12T03:03:48;1.30;99.90
60701;DHT22;46541;49.894;10.886;2023-03-12T03:06:15;1.20;99.90
60701;DHT22;46541;49.894;10.886;2023-03-12T03:08:42;1.30;99.90
60701;DHT22;46541;49.894;10.886;2023-03-12T03:11:09;1.30;99.90
60701;DHT22;46541;49.894;10.886;2023-03-12T03:13:36;1.40;99.90
60701;DHT22;46541;49.894;10.886;2023-03-12T03:16:03;1.40;99.90
60701;DHT22;46541;49.894;10.886;2023-03-12T03:18:31;1.40;99.90
60701;DHT22;46541;49.894;10.886;2023-03-12T03:21:01;1.40;99.90
60701;DHT22;46541;49.894;10.886;2023-03-12T03:23:28;1.40;99.90
60701;DHT22;46541;49.894;10.886;2023-03-12T03:25:55;1.40;99.90
60701;DHT22;46541;49.894;10.886;2023-03-12T03:28:23;1.50;99.90
60701;DHT22;46541;49.894;10.886;2023-03-12T03:30:55;1.50;99.90
60701;DHT22;46541;49.894;10.886;2023-03-12T03:33:28;1.50;99.90
60701;DHT22;46541;49.894;10.886;2023-03-12T03:35:57;1.50;99.90
60701;DHT22;46541;49.894;10.886;2023-03-12T03:38:26;1.50;99.90
60701;DHT22;46541;49.894;10.886;2023-03-12T03:40:54;1.50;99.90
60701;DHT22;46541;49.894;10.886;2023-03-12T03:43:21;1.50;99.90
60701;DHT22;46541;49.894;10.886;2023-03-12T03:45:49;1.40;99.90
60701;DHT22;46541;49.894;10.886;2023-03-12T03:48:21;1.40;99.90
60701;DHT22;46541;49.894;10.886;2023-03-12T03:50:48;1.50;99.90
60701;DHT22;46541;49.894;10.886;2023-03-12T03:53:15;1.50;99.90
60701;DHT22;46541;49.894;10.886;2023-03-12T03:55:41;1.50;99.90
60701;DHT22;46541;49.894;10.886;2023-03-12T03:58:08;1.40;99.90
60701;DHT22;46541;49.894;10.886;2023-03-12T04:00:35;1.40;99.90
60701;DHT22;46541;49.894;10.886;2023-03-12T04:03:02;1.40;99.90
60701;DHT22;46541;49.894;10.886;2023-03-12T04:05:29;1.40;99.90
60701;DHT22;46541;49.894;10.886;2023-03-12T04:07:56;1.40;99.90
60701;DHT22;46541;49.894;10.886;2023-03-12T04:10:29;1.50;99.90
60701;DHT22;46541;49.894;10.886;2023-03-12T04:12:56;1.50;99.90
60701;DHT22;46541;49.894;10.886;2023-03-12T04:15:23;1.50;99.90
60701;DHT22;46541;49.894;10.886;2023-03-12T04:17:49;1.50;99.90
60701;DHT22;46541;49.894;10.886;2023-03-12T04:20:16;1.50;99.90
60701;DHT22;46541;49.894;10.886;2023-03-12T04:22:43;1.50;99.90
60701;DHT22;46541;49.894;10.886;2023-03-12T04:25:10;1.50;99.90
60701;DHT22;46541;49.894;10.886;2023-03-12T04:27:37;1.50;99.90
60701;DHT22;46541;49.894;10.886;2023-03-12T04:30:04;1.50;99.90
60701;DHT22;46541;49.894;10.886;2023-03-12T04:32:31;1.60;99.90
60701;DHT22;46541;49.894;10.886;2023-03-12T04:34:58;1.60;99.90
60701;DHT22;46541;49.894;10.886;2023-03-12T04:37:25;1.60;99.90
60701;DHT22;46541;49.894;10.886;2023-03-12T04:39:52;1.50;99.90
60701;DHT22;46541;49.894;10.886;2023-03-12T04:42:18;1.50;99.90
60701;DHT22;46541;49.894;10.886;2023-03-12T04:44:45;1.50;99.90
60701;DHT22;46541;49.894;10.886;2023-03-12T04:47:12;1.50;99.90
60701;DHT22;46541;49.894;10.886;2023-03-12T04:49:38;1.50;99.90
60701;DHT22;46541;49.894;10.886;2023-03-12T04:52:05;1.60;99.90
60701;DHT22;46541;49.894;10.886;2023-03-12T04:54:33;1.60;99.90
60701;DHT22;46541;49.894;10.886;2023-03-12T04:57:00;1.60;99.90
60701;DHT22;46541;49.894;10.886;2023-03-12T04:59:27;1.60;99.90
60701;DHT22;46541;49.894;10.886;2023-03-12T05:01:53;1.60;99.90
60701;DHT22;46541;49.894;10.886;2023-03-12T05:04:20;1.60;99.90
60701;DHT22;46541;49.894;10.886;2023-03-12T05:06:47;1.60;99.90
60701;DHT22;46541;49.894;10.886;2023-03-12T05:09:13;1.60;99.90
60701;DHT22;46541;49.894;10.886;2023-03-12T05:11:40;1.60;99.90
60701;DHT22;46541;49.894;10.886;2023-03-12T05:14:09;1.60;99.90
60701;DHT22;46541;49.894;10.886;2023-03-12T05:16:36;1.60;99.90
60701;DHT22;46541;49.894;10.886;2023-03-12T05:19:03;1.60;99.90
60701;DHT22;46541;49.894;10.886;2023-03-12T05:21:30;1.50;99.90
60701;DHT22;46541;49.894;10.886;2023-03-12T05:23:58;1.50;99.90
60701;DHT22;46541;49.894;10.886;2023-03-12T05:26:30;1.50;99.90
60701;DHT22;46541;49.894;10.886;2023-03-12T05:28:58;1.60;99.90
60701;DHT22;46541;49.894;10.886;2023-03-12T05:31:26;1.70;99.90
60701;DHT22;46541;49.894;10.886;2023-03-12T05:33:53;1.60;99.90
60701;DHT22;46541;49.894;10.886;2023-03-12T05:36:20;1.70;99.90
60701;DHT22;46541;49.894;10.886;2023-03-12T05:38:47;1.70;99.90
60701;DHT22;46541;49.894;10.886;2023-03-12T05:41:19;1.60;99.90
60701;DHT22;46541;49.894;10.886;2023-03-12T05:43:47;1.60;99.90
60701;DHT22;46541;49.894;10.886;2023-03-12T05:46:14;1.70;99.90
60701;DHT22;46541;49.894;10.886;2023-03-12T05:48:41;1.60;99.90
60701;DHT22;46541;49.894;10.886;2023-03-12T05:51:08;1.60;99.90
60701;DHT22;46541;49.894;10.886;2023-03-12T05:53:35;1.60;99.90
60701;DHT22;46541;49.894;10.886;2023-03-12T05:56:07;1.60;99.90
60701;DHT22;46541;49.894;10.886;2023-03-12T05:58:34;1.60;99.90
60701;DHT22;46541;49.894;10.886;2023-03-12T06:01:01;1.60;99.90
60701;DHT22;46541;49.894;10.886;2023-03-12T06:03:28;1.60;99.90
60701;DHT22;46541;49.894;10.886;2023-03-12T06:05:55;1.60;99.90
60701;DHT22;46541;49.894;10.886;2023-03-12T06:08:23;1.60;99.90
60701;DHT22;46541;49.894;10.886;2023-03-12T06:10:51;1.60;99.90
60701;DHT22;46541;49.894;10.886;2023-03-12T06:13:21;1.70;99.90
60701;DHT22;46541;49.894;10.886;2023-03-12T06:15:49;1.70;99.90
60701;DHT22;46541;49.894;10.886;2023-03-12T06:18:15;1.70;99.90
60701;DHT22;46541;49.894;10.886;2023-03-12T06:20:42;1.70;99.90
60701;DHT22;46541;49.894;10.886;2023-03-12T06:23:10;1.80;99.90
60701;DHT22;46541;49.894;10.886;2023-03-12T06:25:37;1.80;99.90
60701;DHT22;46541;49.894;10.886;2023-03-12T06:28:03;1.90;99.90
60701;DHT22;46541;49.894;10.886;2023-03-12T06:30:30;1.90;99.90
60701;DHT22;46541;49.894;10.886;2023-03-12T06:32:57;2.00;99.90
60701;DHT22;46541;49.894;10.886;2023-03-12T06:35:24;2.00;99.90
60701;DHT22;46541;49.894;10.886;2023-03-12T06:37:50;2.10;99.90
60701;DHT22;46541;49.894;10.886;2023-03-12T06:40:17;2.20;99.90
60701;DHT22;46541;49.894;10.886;2023-03-12T06:42:44;2.20;99.90
60701;DHT22;46541;49.894;10.886;2023-03-12T06:45:11;2.30;99.90
60701;DHT22;46541;49.894;10.886;2023-03-12T06:47:37;2.30;99.90
60701;DHT22;46541;49.894;10.886;2023-03-12T06:50:04;2.30;99.90
60701;DHT22;46541;49.894;10.886;2023-03-12T06:52:31;2.30;99.90
60701;DHT22;46541;49.894;10.886;2023-03-12T06:54:58;2.30;99.90
60701;DHT22;46541;49.894;10.886;2023-03-12T06:57:25;2.40;99.90
60701;DHT22;46541;49.894;10.886;2023-03-12T06:59:51;2.40;99.90
60701;DHT22;46541;49.894;10.886;2023-03-12T07:02:18;2.40;99.90
60701;DHT22;46541;49.894;10.886;2023-03-12T07:04:45;2.50;99.90
60701;DHT22;46541;49.894;10.886;2023-03-12T07:07:12;2.70;99.90
60701;DHT22;46541;49.894;10.886;2023-03-12T07:09:38;2.80;99.90
60701;DHT22;46541;49.894;10.886;2023-03-12T07:12:06;2.90;99.90
60701;DHT22;46541;49.894;10.886;2023-03-12T07:14:32;3.00;99.90
60701;DHT22;46541;49.894;10.886;2023-03-12T07:16:59;3.10;99.90
60701;DHT22;46541;49.894;10.886;2023-03-12T07:19:27;3.10;99.90
60701;DHT22;46541;49.894;10.886;2023-03-12T07:21:56;3.20;99.90
60701;DHT22;46541;49.894;10.886;2023-03-12T07:24:23;3.30;99.90
60701;DHT22;46541;49.894;10.886;2023-03-12T07:26:49;3.40;99.90
60701;DHT22;46541;49.894;10.886;2023-03-12T07:29:16;3.40;99.90
60701;DHT22;46541;49.894;10.886;2023-03-12T07:31:43;3.50;99.90
60701;DHT22;46541;49.894;10.886;2023-03-12T07:34:10;3.60;99.90
60701;DHT22;46541;49.894;10.886;2023-03-12T07:36:36;3.50;99.90
60701;DHT22;46541;49.894;10.886;2023-03-12T07:39:03;3.60;99.90
60701;DHT22;46541;49.894;10.886;2023-03-12T07:41:30;3.50;99.90
60701;DHT22;46541;49.894;10.886;2023-03-12T07:43:57;3.40;99.90
60701;DHT22;46541;49.894;10.886;2023-03-12T07:46:23;3.50;99.90
60701;DHT22;46541;49.894;10.886;2023-03-12T07:48:50;3.70;99.90
60701;DHT22;46541;49.894;10.886;2023-03-12T07:51:17;3.70;99.90
60701;DHT22;46541;49.894;10.886;2023-03-12T07:53:44;3.70;99.90
60701;DHT22;46541;49.894;10.886;2023-03-12T07:56:11;3.70;99.90
60701;DHT22;46541;49.894;10.886;2023-03-12T07:58:37;3.90;99.90
60701;DHT22;46541;49.894;10.886;2023-03-12T08:01:05;4.00;99.90
60701;DHT22;46541;49.894;10.886;2023-03-12T08:03:32;4.00;99.90
60701;DHT22;46541;49.894;10.886;2023-03-12T08:06:01;4.00;99.90
60701;DHT22;46541;49.894;10.886;2023-03-12T08:08:29;4.10;99.90
60701;DHT22;46541;49.894;10.886;2023-03-12T08:10:58;4.10;99.90
60701;DHT22;46541;49.894;10.886;2023-03-12T08:13:25;4.30;99.90
60701;DHT22;46541;49.894;10.886;2023-03-12T08:15:53;4.30;99.90
60701;DHT22;46541;49.894;10.886;2023-03-12T08:18:20;4.40;99.90
60701;DHT22;46541;49.894;10.886;2023-03-12T08:20:52;4.50;99.90
60701;DHT22;46541;49.894;10.886;2023-03-12T08:23:20;4.60;99.90
60701;DHT22;46541;49.894;10.886;2023-03-12T08:25:48;4.50;99.90
60701;DHT22;46541;49.894;10.886;2023-03-12T08:28:16;4.60;99.90
60701;DHT22;46541;49.894;10.886;2023-03-12T08:30:49;4.60;99.90
60701;DHT22;46541;49.894;10.886;2023-03-12T08:33:16;4.60;99.90
60701;DHT22;46541;49.894;10.886;2023-03-12T08:35:43;4.80;99.90
60701;DHT22;46541;49.894;10.886;2023-03-12T08:38:10;4.80;99.90
60701;DHT22;46541;49.894;10.886;2023-03-12T08:40:37;4.90;99.90
60701;DHT22;46541;49.894;10.886;2023-03-12T08:43:03;5.00;99.90
60701;DHT22;46541;49.894;10.886;2023-03-12T08:45:30;5.00;99.90
60701;DHT22;46541;49.894;10.886;2023-03-12T08:47:57;5.10;99.90
60701;DHT22;46541;49.894;10.886;2023-03-12T08:50:24;5.20;99.90
60701;DHT22;46541;49.894;10.886;2023-03-12T08:52:51;5.20;99.90
60701;DHT22;46541;49.894;10.886;2023-03-12T08:55:18;5.10;99.90
60701;DHT22;46541;49.894;10.886;2023-03-12T08:57:45;5.20;99.90
60701;DHT22;46541;49.894;10.886;2023-03-12T09:00:12;5.20;99.90
60701;DHT22;46541;49.894;10.886;2023-03-12T09:02:44;5.30;99.90
60701;DHT22;46541;49.894;10.886;2023-03-12T09:05:12;5.40;99.90
60701;DHT22;46541;49.894;10.886;2023-03-12T09:07:39;5.50;99.90
60701;DHT22;46541;49.894;10.886;2023-03-12T09:10:07;5.60;99.90
60701;DHT22;46541;49.894;10.886;2023-03-12T09:12:33;5.60;99.90
60701;DHT22;46541;49.894;10.886;2023-03-12T09:15:00;5.70;99.90
60701;DHT22;46541;49.894;10.886;2023-03-12T09:17:29;5.80;99.90
60701;DHT22;46541;49.894;10.886;2023-03-12T09:19:56;5.90;99.90
60701;DHT22;46541;49.894;10.886;2023-03-12T09:22:23;5.90;99.90
60701;DHT22;46541;49.894;10.886;2023-03-12T09:24:50;6.20;99.90
60701;DHT22;46541;49.894;10.886;2023-03-12T09:27:16;6.40;99.90
60701;DHT22;46541;49.894;10.886;2023-03-12T09:29:43;6.60;99.90
60701;DHT22;46541;49.894;10.886;2023-03-12T09:32:24;6.60;99.90
60701;DHT22;46541;49.894;10.886;2023-03-12T09:34:52;6.60;99.90
60701;DHT22;46541;49.894;10.886;2023-03-12T09:37:20;6.40;99.90
60701;DHT22;46541;49.894;10.886;2023-03-12T09:39:50;6.40;99.90
60701;DHT22;46541;49.894;10.886;2023-03-12T09:44:49;6.30;99.90
60701;DHT22;46541;49.894;10.886;2023-03-12T09:47:36;6.40;99.90
60701;DHT22;46541;49.894;10.886;2023-03-12T09:50:04;6.50;99.90
60701;DHT22;46541;49.894;10.886;2023-03-12T09:52:39;6.60;99.90
60701;DHT22;46541;49.894;10.886;2023-03-12T09:55:16;6.80;99.90
60701;DHT22;46541;49.894;10.886;2023-03-12T09:57:45;6.80;99.90
60701;DHT22;46541;49.894;10.886;2023-03-12T10:00:23;7.00;99.90
60701;DHT22;46541;49.894;10.886;2023-03-12T10:11:18;7.10;99.90
60701;DHT22;46541;49.894;10.886;2023-03-12T10:19:22;7.50;99.90
60701;DHT22;46541;49.894;10.886;2023-03-12T10:22:06;7.70;99.90
60701;DHT22;46541;49.894;10.886;2023-03-12T10:27:28;8.10;99.90
60701;DHT22;46541;49.894;10.886;2023-03-12T10:29:55;8.10;99.90
60701;DHT22;46541;49.894;10.886;2023-03-12T10:32:39;8.10;99.90
60701;DHT22;46541;49.894;10.886;2023-03-12T10:35:20;8.10;99.90
60701;DHT22;46541;49.894;10.886;2023-03-12T10:37:49;8.00;99.90
60701;DHT22;46541;49.894;10.886;2023-03-12T10:40:22;7.90;99.90
60701;DHT22;46541;49.894;10.886;2023-03-12T10:42:49;7.90;99.90
60701;DHT22;46541;49.894;10.886;2023-03-12T10:47:54;8.00;99.90
60701;DHT22;46541;49.894;10.886;2023-03-12T10:50:28;8.10;99.90
60701;DHT22;46541;49.894;10.886;2023-03-12T10:53:31;8.20;99.90
60701;DHT22;46541;49.894;10.886;2023-03-12T10:55:59;8.40;99.90
60701;DHT22;46541;49.894;10.886;2023-03-12T10:58:32;8.50;99.90
60701;DHT22;46541;49.894;10.886;2023-03-12T11:01:01;8.60;99.90
60701;DHT22;46541;49.894;10.886;2023-03-12T11:03:28;8.60;99.90
60701;DHT22;46541;49.894;10.886;2023-03-12T11:05:58;8.50;99.90
60701;DHT22;46541;49.894;10.886;2023-03-12T11:08:29;8.60;99.90
60701;DHT22;46541;49.894;10.886;2023-03-12T11:10:58;8.60;99.90
60701;DHT22;46541;49.894;10.886;2023-03-12T11:16:03;8.40;99.90
60701;DHT22;46541;49.894;10.886;2023-03-12T11:19:03;8.40;99.90
60701;DHT22;46541;49.894;10.886;2023-03-12T11:21:32;8.60;99.90
60701;DHT22;46541;49.894;10.886;2023-03-12T11:24:11;8.60;99.90
60701;DHT22;46541;49.894;10.886;2023-03-12T11:27:05;8.60;99.90
60701;DHT22;46541;49.894;10.886;2023-03-12T11:29:36;8.60;99.90
60701;DHT22;46541;49.894;10.886;2023-03-12T11:32:27;8.70;99.90
60701;DHT22;46541;49.894;10.886;2023-03-12T11:34:56;8.60;99.90
60701;DHT22;46541;49.894;10.886;2023-03-12T11:46:15;8.20;99.90
60701;DHT22;46541;49.894;10.886;2023-03-12T11:54:52;7.80;99.90
60701;DHT22;46541;49.894;10.886;2023-03-12T12:00:32;7.60;99.90
60701;DHT22;46541;49.894;10.886;2023-03-12T12:33:02;7.50;99.90
60701;DHT22;46541;49.894;10.886;2023-03-12T12:35:36;7.50;99.90
60701;DHT22;46541;49.894;10.886;2023-03-12T12:38:06;7.50;99.90
60701;DHT22;46541;49.894;10.886;2023-03-12T12:40:43;7.50;99.90
60701;DHT22;46541;49.894;10.886;2023-03-12T12:43:38;7.40;99.90
60701;DHT22;46541;49.894;10.886;2023-03-12T12:46:14;7.50;99.90
60701;DHT22;46541;49.894;10.886;2023-03-12T12:48:52;7.40;99.90
60701;DHT22;46541;49.894;10.886;2023-03-12T12:51:26;7.40;99.90
60701;DHT22;46541;49.894;10.886;2023-03-12T12:54:07;7.30;99.90
60701;DHT22;46541;49.894;10.886;2023-03-12T12:56:52;7.30;99.90
60701;DHT22;46541;49.894;10.886;2023-03-12T12:59:35;7.30;99.90
60701;DHT22;46541;49.894;10.886;2023-03-12T13:02:15;7.30;99.90
60701;DHT22;46541;49.894;10.886;2023-03-12T13:04:43;7.40;99.90
60701;DHT22;46541;49.894;10.886;2023-03-12T13:09:43;7.60;99.90
60701;DHT22;46541;49.894;10.886;2023-03-12T13:14:43;7.70;99.90
60701;DHT22;46541;49.894;10.886;2023-03-12T13:17:27;7.90;99.90
60701;DHT22;46541;49.894;10.886;2023-03-12T13:22:53;7.90;99.90
60701;DHT22;46541;49.894;10.886;2023-03-12T13:31:39;7.70;99.90
60701;DHT22;46541;49.894;10.886;2023-03-12T13:36:47;7.50;99.90
60701;DHT22;46541;49.894;10.886;2023-03-12T13:41:48;7.50;99.90
60701;DHT22;46541;49.894;10.886;2023-03-12T13:46:58;7.50;99.90
60701;DHT22;46541;49.894;10.886;2023-03-12T13:49:27;7.50;99.90
60701;DHT22;46541;49.894;10.886;2023-03-12T13:52:00;7.50;99.90
60701;DHT22;46541;49.894;10.886;2023-03-12T13:54:34;7.50;99.90
60701;DHT22;46541;49.894;10.886;2023-03-12T13:57:21;7.50;99.90
60701;DHT22;46541;49.894;10.886;2023-03-12T13:59:50;7.50;99.90
60701;DHT22;46541;49.894;10.886;2023-03-12T14:02:27;7.40;99.90
60701;DHT22;46541;49.894;10.886;2023-03-12T14:05:05;7.40;99.90
60701;DHT22;46541;49.894;10.886;2023-03-12T14:18:58;7.40;99.90
60701;DHT22;46541;49.894;10.886;2023-03-12T14:21:32;7.40;99.90
60701;DHT22;46541;49.894;10.886;2023-03-12T14:23:59;7.40;99.90
60701;DHT22;46541;49.894;10.886;2023-03-12T14:26:30;7.40;99.90
60701;DHT22;46541;49.894;10.886;2023-03-12T14:29:07;7.40;99.90
60701;DHT22;46541;49.894;10.886;2023-03-12T14:31:35;7.40;99.90
60701;DHT22;46541;49.894;10.886;2023-03-12T14:36:57;7.50;99.90
60701;DHT22;46541;49.894;10.886;2023-03-12T14:39:31;7.40;99.90
60701;DHT22;46541;49.894;10.886;2023-03-12T14:42:00;7.40;99.90
60701;DHT22;46541;49.894;10.886;2023-03-12T14:44:32;7.40;99.90
60701;DHT22;46541;49.894;10.886;2023-03-12T14:47:01;7.40;99.90
60701;DHT22;46541;49.894;10.886;2023-03-12T14:49:29;7.40;99.90
60701;DHT22;46541;49.894;10.886;2023-03-12T14:51:57;7.40;99.90
60701;DHT22;46541;49.894;10.886;2023-03-12T14:54:26;7.50;99.90
60701;DHT22;46541;49.894;10.886;2023-03-12T14:56:53;7.50;99.90
60701;DHT22;46541;49.894;10.886;2023-03-12T14:59:29;7.50;99.90
60701;DHT22;46541;49.894;10.886;2023-03-12T15:02:09;7.50;99.90
60701;DHT22;46541;49.894;10.886;2023-03-12T15:04:37;7.50;99.90
60701;DHT22;46541;49.894;10.886;2023-03-12T15:07:05;7.50;99.90
60701;DHT22;46541;49.894;10.886;2023-03-12T15:09:35;7.40;99.90
60701;DHT22;46541;49.894;10.886;2023-03-12T15:12:07;7.40;99.90
60701;DHT22;46541;49.894;10.886;2023-03-12T15:14:42;7.40;99.90
60701;DHT22;46541;49.894;10.886;2023-03-12T15:17:18;7.50;99.90
60701;DHT22;46541;49.894;10.886;2023-03-12T15:19:46;7.50;99.90
60701;DHT22;46541;49.894;10.886;2023-03-12T15:22:17;7.50;99.90
60701;DHT22;46541;49.894;10.886;2023-03-12T15:24:46;7.50;99.90
60701;DHT22;46541;49.894;10.886;2023-03-12T15:29:56;7.70;99.90
60701;DHT22;46541;49.894;10.886;2023-03-12T15:32:24;7.80;99.90
60701;DHT22;46541;49.894;10.886;2023-03-12T15:34:53;7.80;99.90
60701;DHT22;46541;49.894;10.886;2023-03-12T15:37:38;7.80;99.90
60701;DHT22;46541;49.894;10.886;2023-03-12T15:40:19;7.70;99.90
60701;DHT22;46541;49.894;10.886;2023-03-12T15:42:48;7.80;99.90
60701;DHT22;46541;49.894;10.886;2023-03-12T15:45:21;7.80;99.90
60701;DHT22;46541;49.894;10.886;2023-03-12T15:47:50;7.80;99.90
60701;DHT22;46541;49.894;10.886;2023-03-12T15:50:26;7.80;99.90
60701;DHT22;46541;49.894;10.886;2023-03-12T15:55:41;7.90;99.90
60701;DHT22;46541;49.894;10.886;2023-03-12T15:58:31;7.90;99.90
60701;DHT22;46541;49.894;10.886;2023-03-12T16:01:16;8.00;99.90
60701;DHT22;46541;49.894;10.886;2023-03-12T16:03:44;8.00;99.90
60701;DHT22;46541;49.894;10.886;2023-03-12T16:06:17;8.00;99.90
60701;DHT22;46541;49.894;10.886;2023-03-12T16:08:49;8.00;99.90
60701;DHT22;46541;49.894;10.886;2023-03-12T16:11:19;8.00;99.90
60701;DHT22;46541;49.894;10.886;2023-03-12T16:13:48;8.00;99.90
60701;DHT22;46541;49.894;10.886;2023-03-12T16:16:16;8.00;99.90
60701;DHT22;46541;49.894;10.886;2023-03-12T16:18:43;8.00;99.90
60701;DHT22;46541;49.894;10.886;2023-03-12T16:21:10;7.90;99.90
60701;DHT22;46541;49.894;10.886;2023-03-12T16:23:37;7.90;99.90
60701;DHT22;46541;49.894;10.886;2023-03-12T16:26:04;7.90;99.90
60701;DHT22;46541;49.894;10.886;2023-03-12T16:28:34;7.90;99.90
60701;DHT22;46541;49.894;10.886;2023-03-12T16:31:01;8.00;99.90
60701;DHT22;46541;49.894;10.886;2023-03-12T16:33:28;8.00;99.90
60701;DHT22;46541;49.894;10.886;2023-03-12T16:35:55;8.00;99.90
60701;DHT22;46541;49.894;10.886;2023-03-12T16:38:22;8.00;99.90
60701;DHT22;46541;49.894;10.886;2023-03-12T16:40:50;8.10;99.90
60701;DHT22;46541;49.894;10.886;2023-03-12T16:43:20;8.10;99.90
60701;DHT22;46541;49.894;10.886;2023-03-12T16:45:48;8.10;99.90
60701;DHT22;46541;49.894;10.886;2023-03-12T16:48:19;8.10;99.90
60701;DHT22;46541;49.894;10.886;2023-03-12T16:50:50;8.20;99.90
60701;DHT22;46541;49.894;10.886;2023-03-12T16:53:18;8.20;99.90
60701;DHT22;46541;49.894;10.886;2023-03-12T16:55:51;8.20;99.90
60701;DHT22;46541;49.894;10.886;2023-03-12T16:58:21;8.20;99.90
60701;DHT22;46541;49.894;10.886;2023-03-12T17:00:49;8.20;99.90
60701;DHT22;46541;49.894;10.886;2023-03-12T17:05:45;8.30;99.90
60701;DHT22;46541;49.894;10.886;2023-03-12T17:08:13;8.30;99.90
60701;DHT22;46541;49.894;10.886;2023-03-12T17:10:40;8.30;99.90
60701;DHT22;46541;49.894;10.886;2023-03-12T17:13:16;8.30;99.90
60701;DHT22;46541;49.894;10.886;2023-03-12T17:15:43;8.30;99.90
60701;DHT22;46541;49.894;10.886;2023-03-12T17:18:11;8.30;99.90
60701;DHT22;46541;49.894;10.886;2023-03-12T17:20:38;8.30;99.90
60701;DHT22;46541;49.894;10.886;2023-03-12T17:23:05;8.30;99.90
60701;DHT22;46541;49.894;10.886;2023-03-12T17:25:34;8.40;99.90
60701;DHT22;46541;49.894;10.886;2023-03-12T17:28:01;8.40;99.90
60701;DHT22;46541;49.894;10.886;2023-03-12T17:30:29;8.40;99.90
60701;DHT22;46541;49.894;10.886;2023-03-12T17:33:16;8.40;99.90
60701;DHT22;46541;49.894;10.886;2023-03-12T17:35:43;8.40;99.90
60701;DHT22;46541;49.894;10.886;2023-03-12T17:38:10;8.40;99.90
60701;DHT22;46541;49.894;10.886;2023-03-12T17:40:41;8.50;99.90
60701;DHT22;46541;49.894;10.886;2023-03-12T17:43:08;8.40;99.90
60701;DHT22;46541;49.894;10.886;2023-03-12T17:45:35;8.50;99.90
60701;DHT22;46541;49.894;10.886;2023-03-12T17:48:02;8.50;99.90
60701;DHT22;46541;49.894;10.886;2023-03-12T17:50:29;8.50;99.90